createdAt,value
2023-03-11T00:00:40.990Z,34.97
2023-03-11T00:03:09.087Z,38.58
2023-03-11T00:05:38.531Z,34.10
2023-03-11T00:08:07.547Z,34.85
2023-03-11T00:10:46.200Z,33.90
2023-03-11T00:13:15.612Z,34.85
2023-03-11T00:15:44.592Z,41.22
2023-03-11T00:18:11.897Z,36.33
2023-03-11T00:20:41.300Z,35.95
2023-03-11T00:25:37.499Z,39.83
2023-03-11T00:28:07.572Z,34.50
2023-03-11T00:30:34.880Z,33.85
2023-03-11T00:33:02.503Z,36.40
2023-03-11T00:35:31.729Z,32.90
2023-03-11T00:38:01.755Z,37.70
2023-03-11T00:40:32.323Z,41.78
2023-03-11T00:43:00.133Z,38.58
2023-03-11T00:45:28.496Z,38.42
2023-03-11T00:47:55.994Z,43.92
2023-03-11T00:50:31.242Z,39.97
2023-03-11T00:52:58.748Z,41.20
2023-03-11T00:55:31.639Z,43.35
2023-03-11T00:58:01.020Z,40.63
2023-03-11T01:02:56.979Z,37.70
2023-03-11T01:05:28.159Z,35.78
2023-03-11T01:07:55.432Z,37.83
2023-03-11T01:10:22.783Z,36.35
2023-03-11T01:12:50.018Z,32.25
2023-03-11T01:15:29.971Z,31.85
2023-03-11T01:17:57.243Z,31.00
2023-03-11T01:20:24.528Z,29.10
2023-03-11T01:22:51.829Z,26.80
2023-03-11T01:25:20.696Z,22.65
2023-03-11T01:27:48.280Z,18.27
2023-03-11T01:30:19.514Z,15.75
2023-03-11T01:32:47.084Z,15.35
2023-03-11T01:35:16.637Z,15.93
2023-03-11T01:37:43.941Z,7.82
2023-03-11T01:40:33.057Z,6.45
2023-03-11T01:43:01.270Z,4.97
2023-03-11T01:45:49.426Z,6.18
2023-03-11T01:48:16.702Z,3.78
2023-03-11T01:50:47.077Z,5.35
2023-03-11T01:53:15.204Z,3.95
2023-03-11T01:55:43.210Z,4.40
2023-03-11T01:58:15.030Z,4.20
2023-03-11T02:00:43.214Z,5.75
2023-03-11T02:03:24.516Z,3.63
2023-03-11T02:05:52.576Z,4.97
2023-03-11T02:08:19.825Z,3.90
2023-03-11T02:10:47.707Z,6.80
2023-03-11T02:13:15.240Z,6.18
2023-03-11T02:15:42.521Z,6.47
2023-03-11T02:18:10.144Z,7.30
2023-03-11T02:20:54.281Z,11.02
2023-03-11T02:23:25.716Z,8.10
2023-03-11T02:26:15.657Z,7.85
2023-03-11T02:28:43.815Z,8.75
2023-03-11T02:31:11.358Z,12.02
2023-03-11T02:33:38.705Z,12.98
2023-03-11T02:36:06.607Z,12.80
2023-03-11T02:38:36.938Z,14.80
2023-03-11T02:41:05.576Z,14.25
2023-03-11T02:43:38.125Z,16.15
2023-03-11T02:46:07.632Z,14.32
2023-03-11T02:48:35.502Z,16.67
2023-03-11T02:51:03.416Z,14.15
2023-03-11T02:53:33.920Z,15.27
2023-03-11T02:56:01.152Z,15.23
2023-03-11T02:58:28.359Z,15.10
2023-03-11T03:00:55.728Z,15.45
2023-03-11T03:03:23.090Z,14.85
2023-03-11T03:05:50.343Z,14.65
2023-03-11T03:08:17.534Z,16.05
2023-03-11T03:10:44.889Z,17.23
2023-03-11T03:13:12.367Z,15.23
2023-03-11T03:15:39.623Z,15.07
2023-03-11T03:18:06.926Z,22.27
2023-03-11T03:20:34.200Z,17.33
2023-03-11T03:23:01.441Z,17.70
2023-03-11T03:25:28.794Z,17.90
2023-03-11T03:27:56.218Z,17.35
2023-03-11T03:30:23.446Z,19.55
2023-03-11T03:32:50.733Z,15.93
2023-03-11T03:35:18.007Z,18.50
2023-03-11T03:37:45.244Z,17.20
2023-03-11T03:40:13.587Z,18.65
2023-03-11T03:42:40.862Z,17.70
2023-03-11T03:45:09.206Z,19.65
2023-03-11T03:47:37.075Z,22.50
2023-03-11T03:50:07.080Z,17.42
2023-03-11T03:52:36.198Z,18.27
2023-03-11T03:55:04.810Z,17.38
2023-03-11T03:57:32.417Z,14.90
2023-03-11T03:59:59.682Z,14.77
2023-03-11T04:02:26.907Z,13.65
2023-03-11T04:04:54.183Z,11.60
2023-03-11T04:07:21.410Z,12.60
2023-03-11T04:09:48.601Z,11.50
2023-03-11T04:12:17.702Z,10.55
2023-03-11T04:14:45.279Z,8.73
2023-03-11T04:17:13.761Z,9.32
2023-03-11T04:19:41.499Z,10.20
2023-03-11T04:22:08.994Z,8.63
2023-03-11T04:24:36.169Z,12.18
2023-03-11T04:27:03.531Z,8.27
2023-03-11T04:29:30.789Z,10.63
2023-03-11T04:31:58.111Z,8.23
2023-03-11T04:34:25.402Z,10.50
2023-03-11T04:36:53.815Z,7.97
2023-03-11T04:39:21.453Z,9.90
2023-03-11T04:41:48.662Z,8.52
2023-03-11T04:44:15.877Z,7.65
2023-03-11T04:46:43.123Z,8.38
2023-03-11T04:49:10.424Z,9.15
2023-03-11T04:51:37.707Z,9.32
2023-03-11T04:54:05.279Z,8.70
2023-03-11T04:56:32.521Z,9.75
2023-03-11T04:58:59.765Z,8.25
2023-03-11T05:01:27.065Z,8.48
2023-03-11T05:04:01.242Z,9.23
2023-03-11T05:06:28.464Z,9.18
2023-03-11T05:08:55.747Z,9.13
2023-03-11T05:11:22.966Z,11.98
2023-03-11T05:13:50.104Z,7.95
2023-03-11T05:16:17.355Z,12.05
2023-03-11T05:18:44.657Z,8.38
2023-03-11T05:21:11.902Z,9.10
2023-03-11T05:23:39.165Z,9.63
2023-03-11T05:26:06.966Z,9.13
2023-03-11T05:28:34.219Z,10.00
2023-03-11T05:31:01.506Z,9.65
2023-03-11T05:33:34.707Z,10.18
2023-03-11T05:36:10.034Z,11.40
2023-03-11T05:38:37.726Z,10.55
2023-03-11T05:41:06.224Z,13.07
2023-03-11T05:43:33.423Z,13.70
2023-03-11T05:46:00.627Z,11.20
2023-03-11T05:48:27.807Z,11.98
2023-03-11T05:50:54.994Z,14.68
2023-03-11T05:53:22.233Z,18.52
2023-03-11T05:55:57.562Z,15.77
2023-03-11T05:58:24.905Z,16.50
2023-03-11T06:00:52.128Z,22.48
2023-03-11T06:03:19.479Z,17.88
2023-03-11T06:05:47.750Z,17.27
2023-03-11T06:08:15.317Z,19.30
2023-03-11T06:10:43.018Z,18.13
2023-03-11T06:13:10.555Z,20.30
2023-03-11T06:15:38.554Z,24.67
2023-03-11T06:18:05.763Z,25.60
2023-03-11T06:20:32.958Z,19.95
2023-03-11T06:23:00.163Z,21.85
2023-03-11T06:25:27.382Z,17.42
2023-03-11T06:27:54.571Z,17.10
2023-03-11T06:30:21.986Z,18.88
2023-03-11T06:32:49.493Z,23.63
2023-03-11T06:35:16.763Z,20.45
2023-03-11T06:37:43.959Z,16.65
2023-03-11T06:40:11.668Z,20.80
2023-03-11T06:42:38.856Z,18.23
2023-03-11T06:45:06.736Z,16.90
2023-03-11T06:47:33.963Z,17.58
2023-03-11T06:50:06.465Z,15.50
2023-03-11T06:52:34.025Z,13.82
2023-03-11T06:55:01.266Z,17.58
2023-03-11T06:57:29.448Z,21.35
2023-03-11T06:59:56.711Z,12.68
2023-03-11T07:02:23.986Z,13.30
2023-03-11T07:04:51.386Z,15.65
2023-03-11T07:07:18.645Z,13.32
2023-03-11T07:09:45.825Z,12.85
2023-03-11T07:12:14.759Z,13.93
2023-03-11T07:14:41.999Z,15.77
2023-03-11T07:17:09.219Z,21.55
2023-03-11T07:19:36.430Z,17.13
2023-03-11T07:22:03.639Z,13.43
2023-03-11T07:24:30.810Z,16.92
2023-03-11T07:26:57.988Z,17.10
2023-03-11T07:29:25.203Z,19.77
2023-03-11T07:31:52.441Z,16.27
2023-03-11T07:34:19.682Z,14.63
2023-03-11T07:36:46.886Z,16.75
2023-03-11T07:39:17.739Z,16.08
2023-03-11T07:41:45.573Z,19.67
2023-03-11T07:44:14.161Z,17.65
2023-03-11T07:46:42.005Z,20.33
2023-03-11T07:49:09.187Z,15.98
2023-03-11T07:51:37.329Z,17.05
2023-03-11T07:54:04.875Z,23.05
2023-03-11T07:56:34.292Z,13.95
2023-03-11T08:01:35.967Z,18.70
2023-03-11T08:04:08.095Z,19.23
2023-03-11T08:06:37.182Z,13.80
2023-03-11T08:09:07.580Z,27.23
2023-03-11T08:11:35.271Z,16.13
2023-03-11T08:14:02.672Z,18.08
2023-03-11T08:16:30.962Z,13.98
2023-03-11T08:18:58.187Z,12.05
2023-03-11T08:21:26.657Z,13.85
2023-03-11T08:23:56.358Z,13.47
2023-03-11T08:26:23.702Z,12.07
2023-03-11T08:28:51.121Z,12.23
2023-03-11T08:31:20.384Z,12.05
2023-03-11T08:33:49.938Z,14.90
2023-03-11T08:36:17.824Z,9.73
2023-03-11T08:38:45.099Z,12.13
2023-03-11T08:41:12.413Z,12.13
2023-03-11T08:43:39.753Z,14.50
2023-03-11T08:46:07.468Z,12.73
2023-03-11T08:48:36.280Z,12.00
2023-03-11T08:51:08.734Z,18.70
2023-03-11T08:53:37.728Z,14.07
2023-03-11T08:56:05.330Z,13.35
2023-03-11T08:58:32.526Z,12.95
2023-03-11T09:01:00.026Z,17.85
2023-03-11T09:03:27.277Z,17.15
2023-03-11T09:05:58.881Z,17.77
2023-03-11T09:08:26.502Z,18.00
2023-03-11T09:10:54.010Z,15.18
2023-03-11T09:13:21.453Z,13.40
2023-03-11T09:15:50.052Z,17.08
2023-03-11T09:18:17.922Z,12.85
2023-03-11T09:20:45.366Z,14.27
2023-03-11T09:23:15.287Z,14.25
2023-03-11T09:25:42.981Z,18.17
2023-03-11T09:28:10.362Z,16.02
2023-03-11T09:30:37.660Z,13.40
2023-03-11T09:33:04.949Z,13.30
2023-03-11T09:35:32.255Z,13.40
2023-03-11T09:37:59.528Z,14.00
2023-03-11T09:40:28.501Z,15.63
2023-03-11T09:43:31.290Z,14.85
2023-03-11T09:46:16.728Z,12.80
2023-03-11T09:48:49.202Z,15.23
2023-03-11T09:51:27.752Z,12.02
2023-03-11T09:54:03.328Z,14.18
2023-03-11T09:56:31.707Z,13.82
2023-03-11T09:59:07.213Z,14.63
2023-03-11T10:01:37.415Z,14.68
2023-03-11T10:04:44.764Z,16.02
2023-03-11T10:07:22.137Z,14.93
2023-03-11T10:09:56.951Z,16.48
2023-03-11T10:12:38.369Z,17.73
2023-03-11T10:15:19.559Z,17.15
2023-03-11T10:17:58.976Z,16.35
2023-03-11T10:20:38.695Z,15.70
2023-03-11T10:23:14.815Z,17.65
2023-03-11T10:26:12.433Z,17.23
2023-03-11T10:28:54.653Z,16.58
2023-03-11T10:31:30.702Z,17.30
2023-03-11T10:34:05.201Z,18.35
2023-03-11T10:36:57.461Z,20.08
2023-03-11T10:39:25.175Z,16.40
2023-03-11T10:42:00.862Z,15.13
2023-03-11T10:44:44.784Z,14.98
2023-03-11T10:47:20.191Z,15.10
2023-03-11T10:49:47.719Z,18.27
2023-03-11T10:52:15.249Z,22.98
2023-03-11T10:55:02.776Z,16.92
2023-03-11T10:57:35.221Z,14.52
2023-03-11T11:00:12.593Z,15.93
2023-03-11T11:02:48.788Z,15.88
2023-03-11T11:05:20.312Z,15.43
2023-03-11T11:07:55.202Z,14.23
2023-03-11T11:10:23.785Z,20.45
2023-03-11T11:13:04.142Z,15.15
2023-03-11T11:15:40.146Z,16.25
2023-03-11T11:18:16.356Z,15.95
2023-03-11T11:20:58.510Z,15.40
2023-03-11T11:23:49.918Z,17.20
2023-03-11T11:26:27.075Z,17.15
2023-03-11T11:29:12.592Z,12.98
2023-03-11T11:31:46.669Z,14.45
2023-03-11T11:34:30.475Z,16.20
2023-03-11T11:36:59.915Z,13.98
2023-03-11T11:39:29.003Z,14.27
2023-03-11T11:42:01.524Z,14.88
2023-03-11T11:44:35.562Z,14.95
2023-03-11T11:47:29.001Z,15.18
2023-03-11T11:50:01.588Z,14.50
2023-03-11T11:52:33.116Z,15.55
2023-03-11T11:55:23.435Z,17.58
2023-03-11T11:57:52.077Z,16.30
2023-03-11T12:00:26.909Z,15.60
2023-03-11T12:03:13.874Z,16.65
2023-03-11T12:06:02.004Z,18.75
2023-03-11T12:08:47.497Z,18.00
2023-03-11T12:11:30.435Z,11.30
2023-03-11T12:14:05.613Z,14.88
2023-03-11T12:16:57.171Z,16.15
2023-03-11T12:19:59.920Z,13.07
2023-03-11T12:22:49.088Z,14.13
2023-03-11T12:25:23.243Z,16.45
2023-03-11T12:27:53.546Z,12.13
2023-03-11T12:30:43.980Z,14.80
2023-03-11T12:33:41.305Z,12.13
2023-03-11T12:36:49.818Z,10.18
2023-03-11T12:39:30.924Z,19.75
2023-03-11T12:42:25.633Z,13.60
2023-03-11T12:45:44.538Z,13.50
2023-03-11T12:48:33.505Z,14.45
2023-03-11T12:51:01.239Z,14.48
2023-03-11T12:53:49.744Z,15.25
2023-03-11T12:56:35.377Z,14.32
2023-03-11T12:59:24.774Z,14.68
2023-03-11T13:02:03.915Z,12.02
2023-03-11T13:04:58.281Z,16.45
2023-03-11T13:07:48.474Z,13.43
2023-03-11T13:10:37.614Z,14.48
2023-03-11T13:13:25.060Z,14.98
2023-03-11T13:15:53.346Z,13.57
2023-03-11T13:18:28.804Z,14.27
2023-03-11T13:20:58.182Z,16.27
2023-03-11T13:26:11.959Z,16.25
2023-03-11T13:29:00.254Z,16.88
2023-03-11T13:31:57.313Z,14.65
2023-03-11T13:34:45.955Z,15.10
2023-03-11T13:37:25.318Z,16.33
2023-03-11T13:40:14.129Z,16.52
2023-03-11T13:42:56.238Z,12.80
2023-03-11T13:45:27.367Z,14.48
2023-03-11T13:47:58.763Z,15.93
2023-03-11T13:50:37.059Z,13.05
2023-03-11T13:53:09.702Z,14.98
2023-03-11T13:55:43.302Z,13.80
2023-03-11T13:58:25.299Z,12.43
2023-03-11T14:01:00.761Z,11.73
2023-03-11T14:03:32.624Z,13.38
2023-03-11T14:06:06.823Z,11.52
2023-03-11T14:08:38.420Z,13.60
2023-03-11T14:11:08.252Z,11.80
2023-03-11T14:13:39.933Z,10.80
2023-03-11T14:16:10.869Z,11.30
2023-03-11T14:18:46.602Z,11.18
2023-03-11T14:21:33.587Z,11.52
2023-03-11T14:24:01.156Z,8.70
2023-03-11T14:26:35.262Z,7.95
2023-03-11T14:29:09.583Z,10.30
2023-03-11T14:31:44.058Z,10.35
2023-03-11T14:34:11.340Z,11.45
2023-03-11T14:36:48.474Z,11.23
2023-03-11T14:39:29.778Z,10.23
2023-03-11T14:42:23.819Z,8.18
2023-03-11T14:45:05.265Z,7.60
2023-03-11T14:47:40.765Z,10.40
2023-03-11T14:50:14.022Z,8.85
2023-03-11T14:52:58.874Z,10.32
2023-03-11T14:55:40.825Z,6.88
2023-03-11T14:58:36.441Z,10.02
2023-03-11T15:01:28.228Z,8.07
2023-03-11T15:04:00.026Z,10.18
2023-03-11T15:06:29.028Z,12.30
2023-03-11T15:09:00.032Z,6.43
2023-03-11T15:11:28.643Z,8.77
2023-03-11T15:14:34.293Z,6.15
2023-03-11T15:17:33.950Z,4.60
2023-03-11T15:20:25.471Z,4.57
2023-03-11T15:23:00.705Z,6.45
2023-03-11T15:25:30.448Z,5.35
2023-03-11T15:28:15.232Z,5.85
2023-03-11T15:30:42.637Z,12.73
2023-03-11T15:33:30.144Z,4.50
2023-03-11T15:35:57.492Z,4.82
2023-03-11T15:38:28.415Z,5.18
2023-03-11T15:41:03.787Z,2.85
2023-03-11T15:43:35.275Z,8.48
2023-03-11T15:46:03.972Z,5.72
2023-03-11T15:48:31.536Z,3.13
2023-03-11T15:51:00.249Z,3.55
2023-03-11T15:53:28.940Z,4.78
2023-03-11T15:56:06.566Z,3.67
2023-03-11T15:58:37.763Z,7.18
2023-03-11T16:01:05.335Z,7.40
2023-03-11T16:03:32.715Z,5.97
2023-03-11T16:06:00.195Z,5.18
2023-03-11T16:08:32.883Z,4.53
2023-03-11T16:11:00.137Z,7.78
2023-03-11T16:13:27.460Z,5.18
2023-03-11T16:15:58.151Z,6.68
2023-03-11T16:18:25.405Z,9.52
2023-03-11T16:20:53.628Z,9.00
2023-03-11T16:23:25.946Z,6.00
2023-03-11T16:26:00.223Z,8.88
2023-03-11T16:28:27.571Z,8.65
2023-03-11T16:30:54.979Z,4.57
2023-03-11T16:33:22.231Z,7.55
2023-03-11T16:35:49.578Z,10.73
2023-03-11T16:38:19.359Z,9.02
2023-03-11T16:40:47.644Z,5.80
2023-03-11T16:43:19.184Z,7.13
2023-03-11T16:45:46.377Z,9.15
2023-03-11T16:48:13.603Z,10.50
2023-03-11T16:50:41.057Z,10.77
2023-03-11T16:53:08.279Z,6.78
2023-03-11T16:55:35.562Z,11.13
2023-03-11T16:58:02.817Z,9.55
2023-03-11T17:00:30.066Z,8.30
2023-03-11T17:02:57.449Z,10.63
2023-03-11T17:05:24.748Z,6.10
2023-03-11T17:08:00.119Z,8.75
2023-03-11T17:10:28.485Z,7.40
2023-03-11T17:12:55.867Z,5.93
2023-03-11T17:15:23.081Z,6.50
2023-03-11T17:17:51.700Z,7.50
2023-03-11T17:20:21.517Z,9.80
2023-03-11T17:22:49.081Z,11.50
2023-03-11T17:25:16.716Z,10.88
2023-03-11T17:27:44.063Z,9.10
2023-03-11T17:30:16.098Z,8.48
2023-03-11T17:32:46.921Z,9.90
2023-03-11T17:35:14.668Z,7.85
2023-03-11T17:37:41.965Z,10.93
2023-03-11T17:40:09.728Z,8.93
2023-03-11T17:42:39.606Z,13.55
2023-03-11T17:45:07.614Z,10.98
2023-03-11T17:47:36.732Z,6.90
2023-03-11T17:50:05.728Z,10.98
2023-03-11T17:52:33.100Z,13.20
2023-03-11T17:55:00.421Z,8.68
2023-03-11T17:57:45.050Z,11.15
2023-03-11T18:00:18.028Z,8.15
2023-03-11T18:02:45.427Z,11.20
2023-03-11T18:05:12.667Z,11.43
2023-03-11T18:07:40.173Z,9.52
2023-03-11T18:10:09.408Z,10.35
2023-03-11T18:12:36.829Z,12.52
2023-03-11T18:15:08.195Z,11.30
2023-03-11T18:17:36.270Z,13.07
2023-03-11T18:20:04.794Z,11.52
2023-03-11T18:22:35.127Z,11.93
2023-03-11T18:25:02.880Z,8.32
2023-03-11T18:27:30.146Z,9.93
2023-03-11T18:29:57.438Z,12.45
2023-03-11T18:32:24.782Z,12.15
2023-03-11T18:34:52.222Z,12.23
2023-03-11T18:37:19.502Z,9.20
2023-03-11T18:39:46.730Z,7.55
2023-03-11T18:42:15.937Z,8.70
2023-03-11T18:44:43.140Z,11.73
2023-03-11T18:47:10.614Z,18.10
2023-03-11T18:49:52.688Z,5.15
2023-03-11T18:52:19.961Z,8.90
2023-03-11T18:54:50.157Z,8.85
2023-03-11T18:57:17.715Z,8.20
2023-03-11T18:59:45.056Z,4.95
2023-03-11T19:02:40.791Z,6.93
2023-03-11T19:05:10.759Z,8.25
2023-03-11T19:07:38.076Z,6.53
2023-03-11T19:10:05.814Z,9.35
2023-03-11T19:12:37.082Z,6.80
2023-03-11T19:15:04.699Z,11.18
2023-03-11T19:17:31.957Z,10.98
2023-03-11T19:19:59.266Z,8.20
2023-03-11T19:22:29.287Z,8.52
2023-03-11T19:24:56.560Z,7.80
2023-03-11T19:27:23.799Z,9.73
2023-03-11T19:29:51.099Z,5.32
2023-03-11T19:32:18.440Z,12.60
2023-03-11T19:34:46.415Z,13.43
2023-03-11T19:37:13.648Z,8.25
2023-03-11T19:39:40.918Z,8.68
2023-03-11T19:42:08.170Z,8.57
2023-03-11T19:44:35.537Z,10.13
2023-03-11T19:47:02.770Z,6.57
2023-03-11T19:49:30.057Z,8.52
2023-03-11T19:51:57.295Z,8.18
2023-03-11T19:54:24.532Z,14.90
2023-03-11T19:56:51.778Z,5.82
2023-03-11T19:59:19.068Z,12.43
2023-03-11T20:01:46.309Z,10.52
2023-03-11T20:04:15.421Z,9.70
2023-03-11T20:09:11.331Z,7.75
2023-03-11T20:11:40.131Z,8.77
2023-03-11T20:14:08.259Z,6.38
2023-03-11T20:16:35.767Z,8.85
2023-03-11T20:19:03.356Z,13.95
2023-03-11T20:21:32.675Z,6.05
2023-03-11T20:26:27.126Z,11.15
2023-03-11T20:28:57.766Z,8.93
2023-03-11T20:31:26.704Z,10.55
2023-03-11T20:33:54.718Z,9.73
2023-03-11T20:36:24.764Z,12.57
2023-03-11T20:38:55.348Z,7.78
2023-03-11T20:41:23.517Z,9.68
2023-03-11T20:43:57.772Z,11.02
2023-03-11T20:46:25.249Z,8.80
2023-03-11T20:48:52.580Z,11.70
2023-03-11T20:51:20.614Z,5.85
2023-03-11T20:53:49.370Z,6.40
2023-03-11T20:56:22.935Z,10.03
2023-03-11T20:58:52.007Z,13.80
2023-03-11T21:01:22.268Z,8.55
2023-03-11T21:03:50.152Z,15.27
2023-03-11T21:06:23.228Z,11.55
2023-03-11T21:08:52.831Z,9.05
2023-03-11T21:11:20.183Z,12.63
2023-03-11T21:13:50.138Z,7.47
2023-03-11T21:16:17.542Z,5.90
2023-03-11T21:18:47.126Z,5.18
2023-03-11T21:21:18.207Z,9.75
2023-03-11T21:23:46.041Z,9.02
2023-03-11T21:26:14.546Z,8.25
2023-03-11T21:28:46.320Z,10.37
2023-03-11T21:31:19.014Z,5.53
2023-03-11T21:33:47.302Z,5.93
2023-03-11T21:36:15.593Z,7.88
2023-03-11T21:38:43.163Z,12.13
2023-03-11T21:41:13.261Z,9.63
2023-03-11T21:43:44.563Z,6.53
2023-03-11T21:46:15.403Z,10.65
2023-03-11T21:48:43.164Z,5.57
2023-03-11T21:51:10.540Z,10.48
2023-03-11T21:53:38.241Z,8.32
2023-03-11T21:56:06.240Z,6.57
2023-03-11T21:58:35.025Z,7.13
2023-03-11T22:01:03.900Z,3.83
2023-03-11T22:03:35.321Z,9.00
2023-03-11T22:06:06.014Z,8.15
2023-03-11T22:08:33.557Z,3.67
2023-03-11T22:11:01.342Z,11.70
2023-03-11T22:13:29.083Z,10.45
2023-03-11T22:16:01.979Z,4.57
2023-03-11T22:18:29.305Z,4.40
2023-03-11T22:20:59.055Z,7.40
2023-03-11T22:23:26.819Z,11.60
2023-03-11T22:25:54.129Z,10.18
2023-03-11T22:28:24.914Z,7.72
2023-03-11T22:30:52.196Z,6.43
2023-03-11T22:33:19.421Z,5.28
2023-03-11T22:35:54.311Z,8.40
2023-03-11T22:38:22.300Z,5.63
2023-03-11T22:40:49.941Z,8.07
2023-03-11T22:43:17.193Z,5.18
2023-03-11T22:45:45.697Z,9.80
2023-03-11T22:48:13.081Z,5.32
2023-03-11T22:50:44.578Z,7.80
2023-03-11T22:53:12.859Z,10.30
2023-03-11T22:55:44.693Z,15.27
2023-03-11T22:58:12.155Z,16.27
2023-03-11T23:00:39.723Z,14.93
2023-03-11T23:03:07.526Z,6.78
2023-03-11T23:05:42.001Z,9.50
2023-03-11T23:08:14.773Z,4.68
2023-03-11T23:10:46.609Z,9.23
2023-03-11T23:13:14.046Z,17.30
2023-03-11T23:15:42.815Z,3.95
2023-03-11T23:18:10.139Z,7.32
2023-03-11T23:20:42.485Z,5.63
2023-03-11T23:23:10.905Z,8.30
2023-03-11T23:25:39.637Z,8.47
2023-03-11T23:28:06.965Z,8.18
2023-03-11T23:30:34.525Z,7.38
2023-03-11T23:33:02.991Z,5.20
2023-03-11T23:35:30.866Z,12.20
2023-03-11T23:37:58.118Z,7.18
2023-03-11T23:40:25.410Z,8.15
2023-03-11T23:42:52.758Z,4.95
2023-03-11T23:45:20.126Z,7.65
2023-03-11T23:47:47.379Z,15.30
2023-03-11T23:50:15.811Z,11.00
2023-03-11T23:52:43.581Z,6.60
2023-03-11T23:55:11.169Z,6.45
2023-03-11T23:57:38.569Z,6.20
